Time;durP1;ratioP1;P1;durP2;ratioP2;P2;SDS_P1;SDS_P2;PMS_P1;PMS_P2;Temp;Humidity;BMP_temperature;BMP_pressure;BME280_temperature;BME280_humidity;BME280_pressure;Samples;Min_cycle;Max_cycle;Signal;HPM_P1;HPM_P2
2022/08/02 00:01:40;;;;;;;4.78;2.08;;;15.50;99.90;;;;;;5037871;28;20060;-68
2022/08/02 00:04:06;;;;;;;5.43;2.22;;;15.50;99.90;;;;;;5037476;28;20445;-68
2022/08/02 00:06:32;;;;;;;5.50;1.92;;;15.40;99.90;;;;;;5037473;28;20041;-68
2022/08/02 00:08:57;;;;;;;5.65;2.10;;;15.40;99.90;;;;;;5037651;28;20073;-68
2022/08/02 00:11:23;;;;;;;7.88;2.13;;;15.50;99.90;;;;;;5036961;28;20045;-69
2022/08/02 00:13:49;;;;;;;3.97;1.90;;;15.50;99.90;;;;;;5037628;28;20077;-68
2022/08/02 00:16:15;;;;;;;9.45;2.47;;;15.50;99.90;;;;;;5035820;28;20081;-68
2022/08/02 00:18:41;;;;;;;6.63;2.40;;;15.50;99.90;;;;;;5036733;28;20342;-69
2022/08/02 00:21:07;;;;;;;8.35;2.17;;;15.60;99.90;;;;;;5036589;28;20041;-68
2022/08/02 00:23:32;;;;;;;7.85;2.53;;;15.60;99.90;;;;;;5036941;28;20385;-68
2022/08/02 00:25:58;;;;;;;3.65;1.70;;;15.60;99.90;;;;;;5036850;28;20049;-69
2022/08/02 00:28:24;;;;;;;5.68;2.13;;;15.60;99.90;;;;;;5036805;28;20034;-68
2022/08/02 00:30:51;;;;;;;6.72;2.45;;;15.50;99.90;;;;;;5036617;28;20465;-68
2022/08/02 00:33:16;;;;;;;7.47;2.30;;;15.50;99.90;;;;;;5035949;28;20124;-68
2022/08/02 00:35:42;;;;;;;5.90;1.90;;;15.50;99.90;;;;;;5037270;28;20116;-68
2022/08/02 00:38:08;;;;;;;7.28;2.25;;;15.40;99.90;;;;;;5036802;28;20044;-68
2022/08/02 00:40:39;;;;;;;4.93;1.88;;;15.40;99.90;;;;;;5037142;28;20369;-68
2022/08/02 00:43:07;;;;;;;5.43;2.20;;;15.30;99.90;;;;;;5035365;28;20060;-68
2022/08/02 00:45:35;;;;;;;5.13;1.73;;;15.30;99.90;;;;;;5036558;28;20075;-68
2022/08/02 00:48:00;;;;;;;7.70;2.35;;;15.30;99.90;;;;;;5035979;28;20068;-68
2022/08/02 00:50:27;;;;;;;6.10;2.10;;;15.20;99.90;;;;;;5036514;28;20430;-68
2022/08/02 00:52:53;;;;;;;6.13;2.05;;;15.10;99.90;;;;;;5036436;28;20029;-68
2022/08/02 00:55:20;;;;;;;5.45;1.95;;;15.10;99.90;;;;;;5035565;28;20128;-68
2022/08/02 00:57:45;;;;;;;8.68;2.33;;;15.10;99.90;;;;;;5037321;28;20068;-68
2022/08/02 01:00:11;;;;;;;8.10;2.33;;;15.10;99.90;;;;;;5035916;28;20442;-68
2022/08/02 01:02:37;;;;;;;4.53;2.08;;;15.00;99.90;;;;;;5036736;28;20073;-68
2022/08/02 01:05:03;;;;;;;8.55;2.40;;;15.00;99.90;;;;;;5035276;28;20108;-68
2022/08/02 01:07:29;;;;;;;6.68;2.80;;;15.00;99.90;;;;;;5035888;28;20311;-68
2022/08/02 01:09:55;;;;;;;8.88;2.47;;;14.90;99.90;;;;;;5035285;28;20040;-68
2022/08/02 01:12:20;;;;;;;9.45;2.30;;;14.80;99.90;;;;;;5034987;28;20041;-68
2022/08/02 01:14:49;;;;;;;6.90;2.33;;;14.80;99.90;;;;;;5035737;28;20041;-68
2022/08/02 01:17:21;;;;;;;7.93;1.98;;;14.90;99.90;;;;;;5035712;28;20069;-68
2022/08/02 01:19:59;;;;;;;6.75;2.65;;;14.90;99.90;;;;;;5035983;28;20430;-68
2022/08/02 01:22:50;;;;;;;7.47;2.78;;;15.00;99.90;;;;;;5035739;28;20046;-68
2022/08/02 01:25:22;;;;;;;6.45;2.08;;;14.90;99.90;;;;;;5027318;28;20085;-68
2022/08/02 01:28:21;;;;;;;6.38;2.63;;;14.90;99.90;;;;;;5035020;28;20042;-69
2022/08/02 01:30:51;;;;;;;7.35;2.28;;;14.80;99.90;;;;;;5036166;28;20044;-69
2022/08/02 01:33:18;;;;;;;7.65;3.00;;;14.80;99.90;;;;;;5036280;28;20046;-69
2022/08/02 01:35:52;;;;;;;7.00;2.85;;;14.80;99.90;;;;;;5036366;28;20041;-68
2022/08/02 01:38:27;;;;;;;6.07;2.05;;;14.80;99.90;;;;;;5036089;28;20048;-69
2022/08/02 01:40:55;;;;;;;7.78;2.60;;;14.80;99.90;;;;;;5035113;28;20049;-70
2022/08/02 01:43:23;;;;;;;6.63;2.10;;;14.80;99.90;;;;;;5036068;28;20046;-68
2022/08/02 01:45:49;;;;;;;8.80;2.63;;;14.80;99.90;;;;;;5035364;28;20077;-68
2022/08/02 01:48:16;;;;;;;7.65;2.17;;;14.90;99.90;;;;;;5036151;28;20041;-68
2022/08/02 01:50:43;;;;;;;7.20;2.10;;;14.80;99.90;;;;;;5035913;28;20156;-69
2022/08/02 01:53:11;;;;;;;9.02;2.40;;;14.80;99.90;;;;;;5035976;28;20055;-68
2022/08/02 01:55:43;;;;;;;8.32;2.60;;;14.80;99.90;;;;;;5035509;28;20101;-69
2022/08/02 01:58:13;;;;;;;7.22;2.40;;;14.80;99.90;;;;;;5034934;28;20045;-73
2022/08/02 02:00:40;;;;;;;8.73;2.53;;;14.80;99.90;;;;;;5035546;28;20057;-69
2022/08/02 02:03:11;;;;;;;7.40;2.58;;;14.80;99.90;;;;;;5035962;28;20426;-68
2022/08/02 02:05:38;;;;;;;8.65;2.53;;;14.80;99.90;;;;;;5035787;28;20037;-68
2022/08/02 02:08:05;;;;;;;6.18;2.22;;;14.80;99.90;;;;;;5035826;28;20088;-69
2022/08/02 02:10:34;;;;;;;8.93;2.42;;;14.80;99.90;;;;;;5036011;28;20044;-69
2022/08/02 02:13:06;;;;;;;9.55;2.60;;;14.80;99.90;;;;;;5036078;28;20117;-69
2022/08/02 02:15:34;;;;;;;9.23;2.80;;;14.90;99.90;;;;;;5035730;28;20457;-68
2022/08/02 02:18:01;;;;;;;7.72;2.88;;;14.90;99.90;;;;;;5034959;28;20041;-68
2022/08/02 02:20:27;;;;;;;5.20;2.45;;;14.90;99.90;;;;;;5035705;28;20041;-69
2022/08/02 02:22:53;;;;;;;8.75;2.90;;;15.00;99.90;;;;;;5035856;28;20057;-69
2022/08/02 02:25:21;;;;;;;9.88;2.60;;;14.90;99.90;;;;;;5035449;28;20435;-69
2022/08/02 02:28:01;;;;;;;10.57;2.70;;;14.90;99.90;;;;;;5035620;28;20067;-68
2022/08/02 02:30:30;;;;;;;8.07;2.55;;;15.00;99.90;;;;;;5035557;28;20045;-69
2022/08/02 02:32:59;;;;;;;12.65;3.33;;;15.00;99.90;;;;;;5037367;28;20048;-68
2022/08/02 02:35:29;;;;;;;8.93;2.35;;;14.90;99.90;;;;;;5038410;28;20041;-69
2022/08/02 02:37:57;;;;;;;11.00;2.42;;;14.90;99.90;;;;;;5039046;28;20053;-68
2022/08/02 02:40:24;;;;;;;8.40;2.67;;;15.00;99.90;;;;;;5039263;28;20077;-69
2022/08/02 02:42:51;;;;;;;8.63;2.38;;;14.90;99.90;;;;;;5039187;28;20042;-68
2022/08/02 02:45:18;;;;;;;11.93;3.10;;;15.00;99.90;;;;;;5038396;28;20426;-68
2022/08/02 02:47:46;;;;;;;12.15;3.22;;;15.00;99.90;;;;;;5038716;28;20197;-69
2022/08/02 02:50:11;;;;;;;8.73;2.70;;;15.00;99.90;;;;;;5037327;28;20048;-69
2022/08/02 02:52:41;;;;;;;13.55;3.33;;;15.10;99.90;;;;;;5038539;28;20030;-77
2022/08/02 02:55:08;;;;;;;11.80;3.13;;;15.10;99.90;;;;;;5039219;28;20041;-69
2022/08/02 02:57:36;;;;;;;10.27;3.05;;;15.10;99.90;;;;;;5038844;28;20044;-69
2022/08/02 03:00:05;;;;;;;7.93;2.40;;;15.20;99.90;;;;;;5038267;28;20061;-69
2022/08/02 03:02:31;;;;;;;8.90;2.90;;;15.10;99.90;;;;;;5038694;28;20045;-69
2022/08/02 03:05:01;;;;;;;8.73;2.60;;;15.10;99.90;;;;;;5037758;28;20376;-69
2022/08/02 03:07:27;;;;;;;10.18;2.75;;;15.10;99.90;;;;;;5038725;28;20048;-69
2022/08/02 03:09:53;;;;;;;8.20;3.15;;;15.10;99.90;;;;;;5038729;28;20046;-69
2022/08/02 03:12:19;;;;;;;8.55;2.20;;;15.10;99.90;;;;;;5037705;28;20096;-68
2022/08/02 03:14:44;;;;;;;8.30;2.33;;;15.10;99.90;;;;;;5038569;28;20389;-69
2022/08/02 03:17:10;;;;;;;12.93;2.67;;;15.10;99.90;;;;;;5038363;28;20037;-69
2022/08/02 03:19:36;;;;;;;6.10;2.10;;;15.20;99.90;;;;;;5038065;28;20044;-68
2022/08/02 03:22:02;;;;;;;10.05;2.53;;;15.20;99.90;;;;;;5038522;28;20088;-69
2022/08/02 03:24:27;;;;;;;6.93;2.17;;;15.10;99.90;;;;;;5038293;28;20076;-69
2022/08/02 03:26:53;;;;;;;6.45;2.10;;;15.10;99.90;;;;;;5037457;28;20183;-68
2022/08/02 03:29:19;;;;;;;9.25;2.67;;;15.10;99.90;;;;;;5036749;28;20452;-68
2022/08/02 03:31:45;;;;;;;6.15;2.65;;;15.10;99.90;;;;;;5038390;28;20037;-69
2022/08/02 03:34:12;;;;;;;8.80;2.30;;;15.10;99.90;;;;;;5038135;28;20069;-69
2022/08/02 03:36:39;;;;;;;8.45;2.58;;;15.10;99.90;;;;;;5036865;28;20052;-69
2022/08/02 03:39:06;;;;;;;8.32;2.60;;;15.00;99.90;;;;;;5037683;28;20049;-69
2022/08/02 03:41:33;;;;;;;7.65;2.30;;;15.00;99.90;;;;;;5036605;28;20296;-69
2022/08/02 03:43:59;;;;;;;8.15;2.83;;;15.00;99.90;;;;;;5036814;28;20045;-69
2022/08/02 03:46:25;;;;;;;10.65;2.80;;;14.90;99.90;;;;;;5037531;28;20109;-69
2022/08/02 03:48:51;;;;;;;6.03;2.20;;;14.90;99.90;;;;;;5037977;28;20430;-69
2022/08/02 03:51:18;;;;;;;7.38;2.33;;;14.90;99.90;;;;;;5037908;28;20362;-69
2022/08/02 03:53:44;;;;;;;8.63;2.33;;;14.90;99.90;;;;;;5036986;28;20091;-69
2022/08/02 03:56:10;;;;;;;9.40;3.03;;;14.90;99.90;;;;;;5037650;28;20042;-69
2022/08/02 03:58:36;;;;;;;6.50;2.47;;;14.90;99.90;;;;;;5037375;28;20077;-69
2022/08/02 04:01:03;;;;;;;11.52;2.58;;;14.90;99.90;;;;;;5036490;28;20425;-69
2022/08/02 04:03:28;;;;;;;6.43;2.40;;;14.80;99.90;;;;;;5037193;28;20136;-69
2022/08/02 04:05:54;;;;;;;11.48;3.03;;;14.80;99.90;;;;;;5037226;28;20052;-69
2022/08/02 04:08:20;;;;;;;4.07;2.38;;;14.80;99.90;;;;;;5035457;28;20048;-69
2022/08/02 04:13:33;;;;;;;8.60;2.85;;;14.80;99.90;;;;;;5036150;28;20060;-69
2022/08/02 04:16:07;;;;;;;10.30;3.08;;;14.90;99.90;;;;;;5037078;28;20048;-69
2022/08/02 04:18:41;;;;;;;7.22;2.70;;;14.80;99.90;;;;;;5037063;28;20342;-69
2022/08/02 04:21:11;;;;;;;6.28;2.90;;;14.90;99.90;;;;;;5037047;28;20099;-69
2022/08/02 04:23:37;;;;;;;8.85;3.00;;;15.00;99.90;;;;;;5037124;28;20041;-69
2022/08/02 04:26:04;;;;;;;11.10;3.50;;;15.10;99.90;;;;;;5037213;28;20073;-69
2022/08/02 04:28:32;;;;;;;9.68;2.83;;;15.10;99.90;;;;;;5036805;28;20433;-68
2022/08/02 04:30:59;;;;;;;12.38;3.33;;;15.10;99.90;;;;;;5037381;28;20045;-69
2022/08/02 04:33:26;;;;;;;7.75;2.92;;;15.10;99.90;;;;;;5036881;28;20056;-69
2022/08/02 04:35:52;;;;;;;10.95;3.45;;;15.20;99.90;;;;;;5037040;28;20334;-68
2022/08/02 04:38:17;;;;;;;10.02;3.28;;;15.30;99.90;;;;;;5036821;28;20041;-69
2022/08/02 04:40:51;;;;;;;11.15;3.28;;;15.30;99.90;;;;;;5037113;28;20411;-69
2022/08/02 04:43:17;;;;;;;8.88;3.42;;;15.40;99.90;;;;;;5036702;28;20342;-69
2022/08/02 04:45:43;;;;;;;13.40;2.97;;;15.30;99.90;;;;;;5036860;28;20095;-68
2022/08/02 04:48:09;;;;;;;9.82;4.07;;;15.20;99.90;;;;;;5035259;28;20080;-69
2022/08/02 04:50:35;;;;;;;11.57;3.50;;;15.30;99.90;;;;;;5036707;28;20037;-69
2022/08/02 04:53:01;;;;;;;11.45;3.90;;;15.30;99.90;;;;;;5036617;28;20041;-69
2022/08/02 04:55:29;;;;;;;12.15;3.72;;;15.30;99.90;;;;;;5035680;28;20073;-69
2022/08/02 04:57:56;;;;;;;9.75;3.95;;;15.40;99.90;;;;;;5036352;28;20052;-69
2022/08/02 05:00:23;;;;;;;11.63;3.97;;;15.50;99.90;;;;;;5036089;28;20176;-69
2022/08/02 05:02:51;;;;;;;15.77;4.85;;;15.70;99.90;;;;;;5034272;28;20433;-69
2022/08/02 05:05:17;;;;;;;10.25;4.47;;;15.70;99.90;;;;;;5036288;28;20041;-69
2022/08/02 05:07:43;;;;;;;9.70;3.50;;;15.60;99.90;;;;;;5036691;28;20041;-69
2022/08/02 05:10:09;;;;;;;11.23;3.83;;;15.80;99.90;;;;;;5036643;28;20037;-69
2022/08/02 05:12:37;;;;;;;8.45;3.58;;;15.90;99.90;;;;;;5035604;28;20534;-69
2022/08/02 05:15:03;;;;;;;17.90;4.43;;;15.90;99.90;;;;;;5034987;28;20051;-70
2022/08/02 05:17:29;;;;;;;13.32;4.20;;;16.10;99.90;;;;;;5036079;28;20045;-69
2022/08/02 05:19:54;;;;;;;12.23;3.90;;;16.20;99.90;;;;;;5035077;28;20145;-69
2022/08/02 05:22:20;;;;;;;9.05;3.25;;;16.40;99.90;;;;;;5035967;28;20409;-69
2022/08/02 05:24:46;;;;;;;9.75;3.83;;;16.50;99.90;;;;;;5036195;28;20124;-69
2022/08/02 05:27:11;;;;;;;8.98;3.40;;;16.60;99.90;;;;;;5036166;28;20069;-69
2022/08/02 05:29:37;;;;;;;15.63;3.60;;;16.60;99.90;;;;;;5035863;28;20037;-69
2022/08/02 05:32:03;;;;;;;10.88;3.33;;;16.60;99.90;;;;;;5036134;28;20056;-69
2022/08/02 05:34:28;;;;;;;10.25;3.50;;;16.70;99.90;;;;;;5035975;28;20064;-69
2022/08/02 05:36:54;;;;;;;8.77;3.30;;;16.90;99.90;;;;;;5035994;28;20039;-69
2022/08/02 05:39:20;;;;;;;13.80;3.50;;;17.00;99.90;;;;;;5035967;28;20050;-69
2022/08/02 05:41:45;;;;;;;8.68;3.75;;;17.10;99.90;;;;;;5036048;28;20046;-69
2022/08/02 05:44:11;;;;;;;8.77;3.47;;;17.10;99.90;;;;;;5035697;28;20042;-69
2022/08/02 05:46:37;;;;;;;12.40;4.13;;;17.10;99.90;;;;;;5036163;28;20040;-69
2022/08/02 05:49:03;;;;;;;15.63;3.90;;;17.10;99.90;;;;;;5035893;28;20087;-69
2022/08/02 05:52:03;;;;;;;11.32;3.85;;;17.20;99.90;;;;;;5036011;28;20128;-70
2022/08/02 05:54:50;;;;;;;14.00;3.80;;;17.30;99.90;;;;;;5036291;28;20045;-69
2022/08/02 05:57:37;;;;;;;11.90;4.63;;;17.30;99.90;;;;;;5035872;28;20042;-69
2022/08/02 06:00:07;;;;;;;12.20;4.07;;;17.40;99.90;;;;;;5034779;28;20350;-69
2022/08/02 06:02:42;;;;;;;9.80;3.50;;;17.50;99.90;;;;;;5036275;28;20049;-69
2022/08/02 06:05:08;;;;;;;11.25;3.85;;;17.50;99.90;;;;;;5035887;28;20103;-69
2022/08/02 06:07:35;;;;;;;11.57;3.50;;;17.60;99.90;;;;;;5037344;28;20037;-69
2022/08/02 06:10:06;;;;;;;11.32;3.45;;;17.70;99.90;;;;;;5039547;28;20034;-69
2022/08/02 06:12:35;;;;;;;11.80;3.83;;;17.80;99.90;;;;;;5039983;28;20037;-69
2022/08/02 06:15:03;;;;;;;10.60;3.20;;;18.00;99.90;;;;;;5039673;28;20095;-69
2022/08/02 06:17:30;;;;;;;12.93;3.90;;;18.10;99.90;;;;;;5039817;28;20103;-69
2022/08/02 06:19:59;;;;;;;11.25;3.40;;;18.10;99.90;;;;;;5038627;28;20418;-69
2022/08/02 06:22:27;;;;;;;11.18;3.58;;;18.20;99.90;;;;;;5038048;28;20038;-69
2022/08/02 06:24:55;;;;;;;5.70;3.03;;;18.30;99.90;;;;;;5038419;28;20083;-69
2022/08/02 06:27:25;;;;;;;9.38;3.67;;;18.20;99.90;;;;;;5039614;28;20045;-69
2022/08/02 06:29:52;;;;;;;8.95;3.53;;;18.10;99.90;;;;;;5039254;28;20056;-69
2022/08/02 06:32:19;;;;;;;12.23;3.08;;;18.10;99.90;;;;;;5039148;28;20116;-69
2022/08/02 06:34:47;;;;;;;11.82;3.17;;;18.40;99.90;;;;;;5039437;28;20044;-69
2022/08/02 06:37:26;;;;;;;10.15;2.83;;;18.60;99.90;;;;;;5039116;28;20095;-70
2022/08/02 06:40:06;;;;;;;10.05;2.58;;;18.70;99.90;;;;;;5039279;28;20045;-69
2022/08/02 06:42:42;;;;;;;9.23;2.80;;;18.70;99.90;;;;;;5039474;28;20120;-69
2022/08/02 06:45:08;;;;;;;7.47;2.38;;;18.70;99.90;;;;;;5039272;28;20041;-69
2022/08/02 06:47:34;;;;;;;9.80;2.80;;;18.60;99.90;;;;;;5038183;28;20441;-69
2022/08/02 06:50:00;;;;;;;9.75;2.42;;;18.80;99.90;;;;;;5037911;28;20037;-69
2022/08/02 06:52:29;;;;;;;7.57;2.55;;;18.80;99.90;;;;;;5038144;28;20139;-70
2022/08/02 06:55:00;;;;;;;8.23;2.85;;;19.00;99.90;;;;;;5038975;28;20430;-69
2022/08/02 06:57:27;;;;;;;6.80;2.38;;;19.20;99.90;;;;;;5038911;28;20123;-69
2022/08/02 06:59:53;;;;;;;7.63;2.72;;;19.20;99.90;;;;;;5038286;28;20041;-69
2022/08/02 07:02:19;;;;;;;12.23;2.55;;;19.30;99.90;;;;;;5037664;28;20053;-69
2022/08/02 07:04:44;;;;;;;6.00;2.60;;;19.50;99.90;;;;;;5038932;28;20041;-69
2022/08/02 07:07:10;;;;;;;9.23;2.40;;;19.50;99.90;;;;;;5037333;28;20041;-69
2022/08/02 07:09:36;;;;;;;9.75;2.30;;;19.50;99.90;;;;;;5039052;28;20033;-67
2022/08/02 07:12:02;;;;;;;9.07;2.70;;;19.80;99.90;;;;;;5021334;28;20041;-67
2022/08/02 07:14:27;;;;;;;7.95;2.38;;;19.70;99.90;;;;;;5021167;28;20414;-68
2022/08/02 07:16:53;;;;;;;7.75;2.47;;;20.00;99.90;;;;;;5021214;28;20124;-68
2022/08/02 07:19:19;;;;;;;8.50;2.40;;;20.10;99.90;;;;;;5037887;28;20085;-67
2022/08/02 07:21:44;;;;;;;11.07;3.67;;;20.20;99.90;;;;;;5038888;28;20044;-67
2022/08/02 07:24:10;;;;;;;9.57;2.28;;;20.20;99.90;;;;;;5038524;28;20103;-67
2022/08/02 07:26:36;;;;;;;9.50;2.03;;;20.10;99.90;;;;;;5037738;28;20037;-68
2022/08/02 07:29:01;;;;;;;7.60;1.80;;;20.10;99.90;;;;;;5037048;28;20099;-67
2022/08/02 07:31:27;;;;;;;8.68;1.98;;;19.90;99.90;;;;;;5020987;28;20118;-68
2022/08/02 07:33:53;;;;;;;5.85;1.67;;;20.10;99.90;;;;;;5037767;28;20103;-67
2022/08/02 07:36:18;;;;;;;9.77;2.10;;;20.10;99.90;;;;;;5037332;28;20045;-70
2022/08/02 07:38:44;;;;;;;10.30;1.83;;;20.20;99.90;;;;;;5037657;28;20050;-72
2022/08/02 07:41:11;;;;;;;9.60;1.90;;;20.40;99.90;;;;;;5038320;28;20053;-71
2022/08/02 07:43:37;;;;;;;6.80;1.70;;;20.50;99.90;;;;;;5038546;28;20098;-69
2022/08/02 07:46:02;;;;;;;5.97;1.60;;;20.70;99.90;;;;;;5038077;28;20046;-70
2022/08/02 07:48:28;;;;;;;7.63;1.60;;;20.80;99.90;;;;;;5037135;28;20041;-70
2022/08/02 07:50:54;;;;;;;7.07;1.70;;;21.00;99.90;;;;;;5038156;28;20034;-70
2022/08/02 07:53:19;;;;;;;6.45;1.50;;;20.90;99.90;;;;;;5038293;28;20128;-70
2022/08/02 07:55:45;;;;;;;4.57;1.48;;;20.80;99.90;;;;;;5038352;28;20485;-70
2022/08/02 07:58:11;;;;;;;7.53;1.48;;;20.90;99.90;;;;;;5038156;28;20055;-70
2022/08/02 08:00:37;;;;;;;6.38;1.83;;;20.90;99.90;;;;;;5037257;28;20056;-71
2022/08/02 08:03:02;;;;;;;5.60;1.30;;;21.00;99.90;;;;;;5037939;28;20037;-71
2022/08/02 08:05:28;;;;;;;4.50;1.20;;;21.10;99.90;;;;;;5038078;28;20051;-70
2022/08/02 08:07:54;;;;;;;3.75;1.10;;;21.20;99.90;;;;;;5037906;28;20113;-70
2022/08/02 08:10:20;;;;;;;3.63;1.25;;;21.60;99.90;;;;;;5037903;28;20117;-71
2022/08/02 08:12:45;;;;;;;7.07;1.30;;;21.60;99.90;;;;;;5037642;28;20497;-71
2022/08/02 08:15:11;;;;;;;3.13;1.10;;;21.70;99.90;;;;;;5036834;28;20045;-71
2022/08/02 08:17:37;;;;;;;3.53;0.90;;;21.60;99.20;;;;;;5020107;28;20045;-71
2022/08/02 08:20:04;;;;;;;4.47;1.67;;;21.80;99.90;;;;;;5037900;28;20038;-71
2022/08/02 08:22:30;;;;;;;3.67;0.80;;;22.10;99.50;;;;;;5036529;28;20374;-71
2022/08/02 08:24:55;;;;;;;4.13;1.00;;;22.20;99.70;;;;;;5037329;28;20084;-71
2022/08/02 08:27:21;;;;;;;3.90;1.10;;;22.20;99.80;;;;;;5037449;28;20045;-70
2022/08/02 08:29:48;;;;;;;2.42;0.80;;;22.20;99.40;;;;;;5036233;28;20052;-70
2022/08/02 08:32:14;;;;;;;5.15;1.23;;;22.50;99.90;;;;;;5037373;28;20056;-71
2022/08/02 08:34:40;;;;;;;5.75;0.85;;;22.40;99.10;;;;;;5037165;28;20049;-70
2022/08/02 08:37:06;;;;;;;2.38;0.70;;;22.30;99.20;;;;;;5036477;28;20037;-70
2022/08/02 08:39:31;;;;;;;2.58;0.73;;;22.30;98.60;;;;;;5037337;28;20401;-71
2022/08/02 08:41:57;;;;;;;4.30;0.70;;;22.30;98.50;;;;;;5037223;28;20426;-70
2022/08/02 08:44:23;;;;;;;5.00;0.90;;;22.40;98.80;;;;;;5037245;28;20041;-70
2022/08/02 08:46:50;;;;;;;5.18;0.77;;;22.60;98.70;;;;;;5037072;28;20076;-71
2022/08/02 08:49:30;;;;;;;3.65;0.95;;;22.50;98.20;;;;;;5037370;28;20033;-71
2022/08/02 08:51:57;;;;;;;2.30;0.70;;;22.60;98.20;;;;;;5036128;28;20179;-71
2022/08/02 08:54:26;;;;;;;3.58;0.70;;;22.90;98.50;;;;;;5037062;28;20042;-71
2022/08/02 08:56:54;;;;;;;3.00;0.80;;;22.90;98.40;;;;;;5036806;28;20495;-70
2022/08/02 08:59:20;;;;;;;4.90;1.15;;;23.10;98.60;;;;;;5036438;28;20037;-71
2022/08/02 09:01:47;;;;;;;2.28;0.88;;;23.00;98.30;;;;;;5036724;28;20054;-71
2022/08/02 09:04:12;;;;;;;3.28;1.10;;;23.00;97.90;;;;;;5036883;28;20126;-71
2022/08/02 09:06:39;;;;;;;3.30;0.63;;;23.20;98.30;;;;;;5036977;28;20118;-72
2022/08/02 09:09:04;;;;;;;3.53;0.85;;;23.40;98.10;;;;;;5035720;28;20040;-71
2022/08/02 09:11:30;;;;;;;3.92;0.65;;;23.50;98.60;;;;;;5036710;28;20034;-69
2022/08/02 09:13:58;;;;;;;2.67;0.80;;;23.70;98.40;;;;;;5035471;28;20033;-69
2022/08/02 09:16:49;;;;;;;3.22;0.93;;;24.00;98.30;;;;;;5036881;28;20091;-69
2022/08/02 09:19:17;;;;;;;5.30;0.98;;;24.00;98.30;;;;;;5033673;28;20342;-69
2022/08/02 09:21:43;;;;;;;6.18;0.90;;;24.00;98.70;;;;;;5036640;28;20042;-70
2022/08/02 09:24:16;;;;;;;6.90;0.88;;;24.00;98.70;;;;;;5036695;28;20124;-70
2022/08/02 09:26:42;;;;;;;3.30;1.00;;;24.00;98.20;;;;;;5036531;28;20053;-70
2022/08/02 09:29:08;;;;;;;4.38;1.08;;;24.20;98.40;;;;;;5036184;28;20116;-69
2022/08/02 09:31:34;;;;;;;3.40;1.20;;;24.20;98.60;;;;;;5036424;28;20116;-69
2022/08/02 09:34:00;;;;;;;4.22;0.90;;;24.60;98.70;;;;;;5036692;28;20037;-69
2022/08/02 09:36:35;;;;;;;2.50;0.85;;;24.70;98.40;;;;;;5036243;28;20087;-70
2022/08/02 09:39:04;;;;;;;4.18;1.13;;;24.80;98.50;;;;;;5035534;28;20435;-70
2022/08/02 09:41:32;;;;;;;1.52;0.70;;;24.90;98.70;;;;;;5037526;28;20029;-69
2022/08/02 09:44:00;;;;;;;2.75;1.00;;;25.00;98.50;;;;;;5040691;28;20124;-70
2022/08/02 09:46:31;;;;;;;3.85;1.08;;;25.20;98.50;;;;;;5040478;28;20067;-70
2022/08/02 09:48:59;;;;;;;3.40;0.77;;;25.20;98.60;;;;;;5040607;28;20339;-70
2022/08/02 09:51:30;;;;;;;3.20;1.00;;;25.50;99.00;;;;;;5039338;28;20098;-69
2022/08/02 09:53:58;;;;;;;4.25;1.20;;;25.40;98.50;;;;;;5039170;28;20369;-70
2022/08/02 09:56:25;;;;;;;5.88;1.20;;;25.40;98.30;;;;;;5040422;28;20033;-70
2022/08/02 09:58:53;;;;;;;4.10;1.30;;;25.10;98.40;;;;;;5038959;28;20045;-69
2022/08/02 10:01:20;;;;;;;2.15;0.90;;;24.90;98.70;;;;;;5039940;28;20077;-70
2022/08/02 10:04:09;;;;;;;5.30;1.75;;;25.00;99.00;;;;;;5040403;28;20045;-70
2022/08/02 10:06:37;;;;;;;4.82;1.35;;;25.30;98.70;;;;;;5040157;28;20056;-69
2022/08/02 10:09:04;;;;;;;6.72;1.45;;;25.50;98.60;;;;;;5040290;28;20117;-70
2022/08/02 10:11:30;;;;;;;6.07;1.38;;;25.50;98.50;;;;;;5039170;28;20048;-69
2022/08/02 10:13:56;;;;;;;3.85;1.50;;;25.70;98.60;;;;;;5039950;28;20049;-70
2022/08/02 10:16:23;;;;;;;6.65;2.15;;;25.60;98.60;;;;;;5039772;28;20033;-70
2022/08/02 10:18:53;;;;;;;1.95;1.10;;;25.80;98.90;;;;;;5040083;28;20060;-70
2022/08/02 10:21:31;;;;;;;3.55;0.98;;;25.70;99.20;;;;;;5039978;28;20045;-70
2022/08/02 10:24:29;;;;;;;5.28;1.77;;;25.70;99.00;;;;;;5038753;28;20057;-70
2022/08/02 10:26:58;;;;;;;3.78;1.40;;;25.80;98.90;;;;;;5036910;28;20057;-70
2022/08/02 10:29:29;;;;;;;5.47;1.80;;;26.00;99.40;;;;;;5039412;28;20035;-70
2022/08/02 10:31:57;;;;;;;4.82;1.42;;;26.30;99.40;;;;;;5039892;28;20041;-70
2022/08/02 10:34:30;;;;;;;4.13;1.48;;;26.50;99.50;;;;;;5039646;28;20307;-70
2022/08/02 10:36:56;;;;;;;4.38;1.83;;;26.60;99.40;;;;;;5038790;28;20044;-70
2022/08/02 10:39:22;;;;;;;6.63;1.75;;;26.80;99.00;;;;;;5039381;28;20037;-70
2022/08/02 10:41:52;;;;;;;5.15;1.80;;;27.00;99.50;;;;;;5022194;28;20102;-70
2022/08/02 10:44:24;;;;;;;9.40;2.35;;;27.10;99.40;;;;;;5039527;28;20069;-70
2022/08/02 10:46:51;;;;;;;6.10;2.45;;;27.00;99.10;;;;;;5038277;28;20037;-70
2022/08/02 10:49:19;;;;;;;5.15;2.05;;;26.60;99.70;;;;;;5039476;28;20095;-70
2022/08/02 10:51:53;;;;;;;5.63;2.40;;;27.10;99.80;;;;;;5039125;28;20418;-70
2022/08/02 10:54:21;;;;;;;4.05;2.13;;;27.30;99.90;;;;;;5038257;28;20041;-71
2022/08/02 10:56:48;;;;;;;5.43;2.17;;;27.50;99.90;;;;;;5039445;28;20037;-70
2022/08/02 10:59:25;;;;;;;4.10;2.00;;;27.40;99.80;;;;;;5038818;28;20112;-69
2022/08/02 11:01:55;;;;;;;7.30;1.77;;;27.30;99.70;;;;;;5038079;28;20350;-70
2022/08/02 11:04:21;;;;;;;9.55;2.28;;;27.60;99.90;;;;;;5038947;28;20048;-70
2022/08/02 11:07:10;;;;;;;5.70;1.92;;;27.70;99.70;;;;;;5039139;28;20041;-70
2022/08/02 11:09:36;;;;;;;4.18;2.40;;;27.60;99.70;;;;;;5039248;28;20034;-69
2022/08/02 11:12:05;;;;;;;4.28;1.95;;;27.50;98.90;;;;;;5038940;28;20087;-69
2022/08/02 11:14:38;;;;;;;4.10;2.50;;;27.10;99.30;;;;;;5039051;28;20371;-69
2022/08/02 11:17:04;;;;;;;7.00;2.47;;;27.20;99.70;;;;;;5037795;28;20049;-69
2022/08/02 11:19:30;;;;;;;4.18;1.67;;;27.20;99.40;;;;;;5038385;28;20430;-70
2022/08/02 11:22:00;;;;;;;5.45;1.90;;;27.30;99.90;;;;;;5038854;28;20124;-70
2022/08/02 11:24:35;;;;;;;6.57;1.90;;;27.30;99.60;;;;;;5037615;28;20334;-71
2022/08/02 11:27:03;;;;;;;9.43;2.10;;;27.20;99.70;;;;;;5039203;28;20041;-70
2022/08/02 11:29:40;;;;;;;6.50;2.17;;;27.20;99.60;;;;;;5037970;28;20048;-70
2022/08/02 11:32:21;;;;;;;4.85;2.00;;;27.20;99.60;;;;;;5038849;28;20079;-70
2022/08/02 11:34:50;;;;;;;6.00;1.90;;;27.30;99.60;;;;;;5038383;28;20120;-69
2022/08/02 11:37:36;;;;;;;5.72;2.30;;;27.20;99.90;;;;;;5038614;28;20050;-68
2022/08/02 11:40:08;;;;;;;6.80;1.63;;;27.10;99.90;;;;;;5037405;28;20453;-70
2022/08/02 11:42:35;;;;;;;4.80;2.00;;;27.40;99.90;;;;;;5037464;28;20064;-70
2022/08/02 11:45:03;;;;;;;9.35;2.40;;;27.70;99.90;;;;;;5037324;28;20052;-69
2022/08/02 11:47:30;;;;;;;5.00;2.20;;;27.90;99.90;;;;;;5038242;28;20117;-69
2022/08/02 11:50:07;;;;;;;8.07;2.15;;;28.10;99.90;;;;;;5038184;28;20042;-70
2022/08/02 11:52:34;;;;;;;4.80;1.73;;;27.80;99.90;;;;;;5038128;28;20081;-70
2022/08/02 11:55:00;;;;;;;4.47;1.90;;;27.50;99.90;;;;;;5038182;28;20100;-70
2022/08/02 11:57:26;;;;;;;4.60;2.28;;;27.60;99.90;;;;;;5036986;28;20046;-71
2022/08/02 11:59:55;;;;;;;4.78;1.80;;;27.80;99.90;;;;;;5037454;28;20041;-71
2022/08/02 12:02:26;;;;;;;6.22;2.28;;;28.40;99.90;;;;;;5038207;28;20050;-78
2022/08/02 12:05:05;;;;;;;7.82;1.70;;;28.80;99.60;;;;;;5037530;28;20046;-86
2022/08/02 12:07:36;;;;;;;5.38;1.63;;;28.70;99.30;;;;;;5037813;28;20048;-72
2022/08/02 12:10:16;;;;;;;4.50;1.58;;;28.50;99.20;;;;;;5036878;28;20073;-72
2022/08/02 12:12:56;;;;;;;2.22;1.45;;;27.80;99.30;;;;;;5037771;28;20041;-72
2022/08/02 12:15:48;;;;;;;3.38;1.58;;;27.90;99.70;;;;;;5037934;28;20096;-77
2022/08/02 12:21:24;;;;;;;3.38;1.42;;;27.80;99.60;;;;;;5036247;28;20346;-73
2022/08/02 12:23:50;;;;;;;6.82;1.63;;;27.50;99.80;;;;;;5037534;28;20053;-72
2022/08/02 12:26:16;;;;;;;5.97;2.78;;;27.50;99.80;;;;;;5037382;28;20426;-70
2022/08/02 12:28:42;;;;;;;5.57;2.00;;;27.60;99.80;;;;;;5036518;28;20037;-81
2022/08/02 12:31:09;;;;;;;4.78;2.10;;;27.60;99.70;;;;;;5037258;28;20041;-71
2022/08/02 12:33:53;;;;;;;3.78;2.13;;;27.60;99.90;;;;;;5037350;28;20044;-74
2022/08/02 12:36:26;;;;;;;6.05;1.98;;;27.80;99.90;;;;;;5037602;28;20045;-71
2022/08/02 12:38:53;;;;;;;5.95;2.60;;;27.70;99.90;;;;;;5037368;28;20033;-71
2022/08/02 12:41:19;;;;;;;5.93;2.90;;;27.80;99.90;;;;;;5037341;28;20059;-70
2022/08/02 12:43:45;;;;;;;8.00;2.65;;;27.60;99.90;;;;;;5037158;28;20120;-71
2022/08/02 12:46:19;;;;;;;5.85;3.00;;;27.50;99.90;;;;;;5036093;28;20080;-70
2022/08/02 12:48:45;;;;;;;7.88;4.30;;;27.60;99.90;;;;;;5037025;28;20342;-70
2022/08/02 12:51:27;;;;;;;9.60;3.83;;;27.60;99.90;;;;;;5037172;28;20041;-71
2022/08/02 12:53:56;;;;;;;6.38;3.20;;;27.60;99.90;;;;;;5037109;28;20045;-71
2022/08/02 12:56:36;;;;;;;5.32;2.92;;;27.50;99.90;;;;;;5036954;28;20041;-71
2022/08/02 12:59:02;;;;;;;4.97;3.47;;;27.50;99.90;;;;;;5036224;28;20045;-72